sensor_id;sensor_type;location;lat;lon;timestamp;pressure;altitude;pressure_sealevel;temperature;humidity
10127;BME280;13080;42.608;23.362;2023-05-03T00:01:29;153608.19;;;9.91;57.97
10127;BME280;13080;42.608;23.362;2023-05-03T00:03:57;153613.38;;;9.93;58.72
10127;BME280;13080;42.608;23.362;2023-05-03T00:06:24;153601.69;;;9.88;59.85
10127;BME280;13080;42.608;23.362;2023-05-03T00:08:51;153614.72;;;9.93;59.99
10127;BME280;13080;42.608;23.362;2023-05-03T00:11:17;153606.91;;;9.90;58.53
10127;BME280;13080;42.608;23.362;2023-05-03T00:13:45;153584.81;;;9.82;59.37
10127;BME280;13080;42.608;23.362;2023-05-03T00:16:13;153573.16;;;9.77;60.92
10127;BME280;13080;42.608;23.362;2023-05-03T00:18:40;153566.66;;;9.74;59.62
10127;BME280;13080;42.608;23.362;2023-05-03T00:21:08;153543.31;;;9.65;58.62
10127;BME280;13080;42.608;23.362;2023-05-03T00:23:34;153549.78;;;9.68;58.27
10127;BME280;13080;42.608;23.362;2023-05-03T00:26:01;153534.19;;;9.62;58.31
10127;BME280;13080;42.608;23.362;2023-05-03T00:28:28;153540.72;;;9.64;58.78
10127;BME280;13080;42.608;23.362;2023-05-03T00:30:55;153532.91;;;9.61;58.50
10127;BME280;13080;42.608;23.362;2023-05-03T00:33:22;153523.88;;;9.57;59.81
10127;BME280;13080;42.608;23.362;2023-05-03T00:35:48;153501.78;;;9.49;59.95
10127;BME280;13080;42.608;23.362;2023-05-03T00:38:16;153514.75;;;9.54;60.58
10127;BME280;13080;42.608;23.362;2023-05-03T00:40:43;153516.03;;;9.54;59.75
10127;BME280;13080;42.608;23.362;2023-05-03T00:43:11;153513.47;;;9.53;59.43
10127;BME280;13080;42.608;23.362;2023-05-03T00:45:38;153499.16;;;9.48;60.10
10127;BME280;13080;42.608;23.362;2023-05-03T00:48:05;153492.69;;;9.45;58.60
10127;BME280;13080;42.608;23.362;2023-05-03T00:50:32;153495.31;;;9.46;57.45
10127;BME280;13080;42.608;23.362;2023-05-03T00:52:59;153474.53;;;9.38;59.34
10127;BME280;13080;42.608;23.362;2023-05-03T00:55:28;153479.72;;;9.40;58.56
10127;BME280;13080;42.608;23.362;2023-05-03T00:57:55;153465.44;;;9.34;59.28
10127;BME280;13080;42.608;23.362;2023-05-03T01:00:23;153462.84;;;9.33;60.70
10127;BME280;13080;42.608;23.362;2023-05-03T01:02:50;153444.69;;;9.26;60.05
10127;BME280;13080;42.608;23.362;2023-05-03T01:05:17;153440.78;;;9.25;59.70
10127;BME280;13080;42.608;23.362;2023-05-03T01:07:50;153444.69;;;9.26;61.65
10127;BME280;13080;42.608;23.362;2023-05-03T01:10:28;153447.28;;;9.27;61.07
10127;BME280;13080;42.608;23.362;2023-05-03T01:13:05;153434.31;;;9.22;61.88
10127;BME280;13080;42.608;23.362;2023-05-03T01:15:44;153423.94;;;9.18;59.14
10127;BME280;13080;42.608;23.362;2023-05-03T01:18:20;153433.03;;;9.22;59.58
10127;BME280;13080;42.608;23.362;2023-05-03T01:20:49;153407.06;;;9.11;61.33
10127;BME280;13080;42.608;23.362;2023-05-03T01:23:27;153382.44;;;9.02;61.44
10127;BME280;13080;42.608;23.362;2023-05-03T01:25:57;153378.53;;;9.00;62.94
10127;BME280;13080;42.608;23.362;2023-05-03T01:28:24;153365.56;;;8.95;62.68
10127;BME280;13080;42.608;23.362;2023-05-03T01:30:51;153355.19;;;8.91;63.30
10127;BME280;13080;42.608;23.362;2023-05-03T01:33:26;153346.06;;;8.87;61.41
10127;BME280;13080;42.608;23.362;2023-05-03T01:36:01;153321.44;;;8.78;61.58
10127;BME280;13080;42.608;23.362;2023-05-03T01:38:32;153320.16;;;8.77;61.74
10127;BME280;13080;42.608;23.362;2023-05-03T01:41:08;153317.53;;;8.76;61.01
10127;BME280;13080;42.608;23.362;2023-05-03T01:43:35;153308.50;;;8.72;61.09
10127;BME280;13080;42.608;23.362;2023-05-03T01:46:03;153324.03;;;8.79;61.17
10127;BME280;13080;42.608;23.362;2023-05-03T01:48:30;153313.69;;;8.74;59.73
10127;BME280;13080;42.608;23.362;2023-05-03T01:50:57;153321.44;;;8.78;60.39
10127;BME280;13080;42.608;23.362;2023-05-03T01:53:24;153298.13;;;8.68;59.79
10127;BME280;13080;42.608;23.362;2023-05-03T01:55:50;153309.78;;;8.73;59.54
10127;BME280;13080;42.608;23.362;2023-05-03T01:58:18;153279.97;;;8.61;60.36
10127;BME280;13080;42.608;23.362;2023-05-03T02:00:47;153270.88;;;8.58;60.67
10127;BME280;13080;42.608;23.362;2023-05-03T02:03:14;153272.16;;;8.58;60.32
10127;BME280;13080;42.608;23.362;2023-05-03T02:05:40;153250.09;;;8.49;61.19
10127;BME280;13080;42.608;23.362;2023-05-03T02:08:07;153238.44;;;8.45;61.51
10127;BME280;13080;42.608;23.362;2023-05-03T02:10:34;153233.25;;;8.43;61.73
10127;BME280;13080;42.608;23.362;2023-05-03T02:13:01;153215.06;;;8.36;63.47
10127;BME280;13080;42.608;23.362;2023-05-03T02:15:29;153213.78;;;8.35;61.86
10127;BME280;13080;42.608;23.362;2023-05-03T02:17:56;153206.00;;;8.32;61.56
10127;BME280;13080;42.608;23.362;2023-05-03T02:20:26;153204.66;;;8.31;62.27
10127;BME280;13080;42.608;23.362;2023-05-03T02:22:56;153212.47;;;8.35;62.83
10127;BME280;13080;42.608;23.362;2023-05-03T02:25:23;153217.66;;;8.37;61.73
10127;BME280;13080;42.608;23.362;2023-05-03T02:27:50;153207.28;;;8.32;62.60
10127;BME280;13080;42.608;23.362;2023-05-03T02:30:17;153209.88;;;8.33;61.56
10127;BME280;13080;42.608;23.362;2023-05-03T02:32:45;153215.06;;;8.36;62.38
10127;BME280;13080;42.608;23.362;2023-05-03T02:35:11;153208.56;;;8.33;62.02
10127;BME280;13080;42.608;23.362;2023-05-03T02:37:38;153213.78;;;8.35;62.35
10127;BME280;13080;42.608;23.362;2023-05-03T02:40:06;153195.63;;;8.28;63.14
10127;BME280;13080;42.608;23.362;2023-05-03T02:42:34;153206.00;;;8.32;61.80
10127;BME280;13080;42.608;23.362;2023-05-03T02:45:01;153202.09;;;8.30;62.67
10127;BME280;13080;42.608;23.362;2023-05-03T02:47:27;153206.00;;;8.32;62.74
10127;BME280;13080;42.608;23.362;2023-05-03T02:49:55;153206.00;;;8.32;62.29
10127;BME280;13080;42.608;23.362;2023-05-03T02:52:22;153224.16;;;8.39;61.82
10127;BME280;13080;42.608;23.362;2023-05-03T02:54:49;153226.78;;;8.40;61.71
10127;BME280;13080;42.608;23.362;2023-05-03T02:57:16;153220.25;;;8.38;62.00
10127;BME280;13080;42.608;23.362;2023-05-03T02:59:42;153207.28;;;8.32;62.61
10127;BME280;13080;42.608;23.362;2023-05-03T03:02:09;153202.09;;;8.30;63.42
10127;BME280;13080;42.608;23.362;2023-05-03T03:04:36;153212.47;;;8.35;63.42
10127;BME280;13080;42.608;23.362;2023-05-03T03:07:04;153202.09;;;8.30;64.07
10127;BME280;13080;42.608;23.362;2023-05-03T03:09:31;153206.00;;;8.32;62.44
10127;BME280;13080;42.608;23.362;2023-05-03T03:12:00;153211.19;;;8.34;62.30
10127;BME280;13080;42.608;23.362;2023-05-03T03:14:28;153200.81;;;8.30;61.72
10127;BME280;13080;42.608;23.362;2023-05-03T03:16:55;153200.81;;;8.30;61.86
10127;BME280;13080;42.608;23.362;2023-05-03T03:19:21;153204.66;;;8.31;62.12
10127;BME280;13080;42.608;23.362;2023-05-03T03:21:48;153204.66;;;8.31;61.95
10127;BME280;13080;42.608;23.362;2023-05-03T03:24:16;153212.47;;;8.35;61.35
10127;BME280;13080;42.608;23.362;2023-05-03T03:26:43;153217.66;;;8.37;61.68
10127;BME280;13080;42.608;23.362;2023-05-03T03:29:09;153204.66;;;8.31;60.96
10127;BME280;13080;42.608;23.362;2023-05-03T03:31:36;153220.25;;;8.38;61.38
10127;BME280;13080;42.608;23.362;2023-05-03T03:34:03;153230.66;;;8.42;63.32
10127;BME280;13080;42.608;23.362;2023-05-03T03:36:30;153231.97;;;8.42;61.12
10127;BME280;13080;42.608;23.362;2023-05-03T03:38:56;153215.06;;;8.36;60.55
10127;BME280;13080;42.608;23.362;2023-05-03T03:41:25;153207.28;;;8.32;61.44
10127;BME280;13080;42.608;23.362;2023-05-03T03:43:51;153217.66;;;8.37;61.21
10127;BME280;13080;42.608;23.362;2023-05-03T03:46:18;153216.34;;;8.36;60.47
10127;BME280;13080;42.608;23.362;2023-05-03T03:48:46;153228.06;;;8.41;61.44
10127;BME280;13080;42.608;23.362;2023-05-03T03:51:13;153221.53;;;8.38;60.63
10127;BME280;13080;42.608;23.362;2023-05-03T03:53:40;153215.06;;;8.36;61.27
10127;BME280;13080;42.608;23.362;2023-05-03T03:56:07;153225.44;;;8.40;61.24
10127;BME280;13080;42.608;23.362;2023-05-03T03:58:35;153217.66;;;8.37;61.08
10127;BME280;13080;42.608;23.362;2023-05-03T04:01:02;153239.78;;;8.45;60.39
10127;BME280;13080;42.608;23.362;2023-05-03T04:03:29;153242.34;;;8.46;60.85
10127;BME280;13080;42.608;23.362;2023-05-03T04:05:59;153211.19;;;8.34;60.43
10127;BME280;13080;42.608;23.362;2023-05-03T04:08:26;153211.19;;;8.34;60.82
10127;BME280;13080;42.608;23.362;2023-05-03T04:10:55;153216.34;;;8.36;61.14
10127;BME280;13080;42.608;23.362;2023-05-03T04:13:23;153215.06;;;8.36;60.92
10127;BME280;13080;42.608;23.362;2023-05-03T04:15:54;153226.78;;;8.40;61.16
10127;BME280;13080;42.608;23.362;2023-05-03T04:18:21;153230.66;;;8.42;61.46
10127;BME280;13080;42.608;23.362;2023-05-03T04:20:48;153218.97;;;8.37;61.13
10127;BME280;13080;42.608;23.362;2023-05-03T04:23:18;153239.78;;;8.45;61.95
10127;BME280;13080;42.608;23.362;2023-05-03T04:25:45;153246.25;;;8.48;61.89
10127;BME280;13080;42.608;23.362;2023-05-03T04:28:12;153235.88;;;8.44;62.05
10127;BME280;13080;42.608;23.362;2023-05-03T04:30:39;153212.47;;;8.35;61.64
10127;BME280;13080;42.608;23.362;2023-05-03T04:33:09;153220.25;;;8.38;62.79
10127;BME280;13080;42.608;23.362;2023-05-03T04:35:36;153229.38;;;8.41;62.24
10127;BME280;13080;42.608;23.362;2023-05-03T04:38:03;153225.44;;;8.40;62.65
10127;BME280;13080;42.608;23.362;2023-05-03T04:40:29;153239.78;;;8.45;62.35
10127;BME280;13080;42.608;23.362;2023-05-03T04:42:56;153247.53;;;8.48;62.65
10127;BME280;13080;42.608;23.362;2023-05-03T04:45:23;153239.78;;;8.45;61.75
10127;BME280;13080;42.608;23.362;2023-05-03T04:47:51;153263.09;;;8.55;61.08
10127;BME280;13080;42.608;23.362;2023-05-03T04:50:20;153268.28;;;8.57;62.26
10127;BME280;13080;42.608;23.362;2023-05-03T04:52:46;153252.72;;;8.50;62.88
10127;BME280;13080;42.608;23.362;2023-05-03T04:55:13;153242.34;;;8.46;63.32
10127;BME280;13080;42.608;23.362;2023-05-03T04:57:41;153242.34;;;8.46;66.06
10127;BME280;13080;42.608;23.362;2023-05-03T05:00:09;153220.25;;;8.38;66.73
10127;BME280;13080;42.608;23.362;2023-05-03T05:02:36;153187.81;;;8.25;67.43
10127;BME280;13080;42.608;23.362;2023-05-03T05:05:03;153218.97;;;8.37;69.61
10127;BME280;13080;42.608;23.362;2023-05-03T05:07:31;153200.81;;;8.30;67.53
10127;BME280;13080;42.608;23.362;2023-05-03T05:09:58;153209.88;;;8.33;67.19
10127;BME280;13080;42.608;23.362;2023-05-03T05:12:25;153198.19;;;8.29;66.82
10127;BME280;13080;42.608;23.362;2023-05-03T05:14:52;153198.19;;;8.29;67.78
10127;BME280;13080;42.608;23.362;2023-05-03T05:17:19;153217.66;;;8.37;68.15
10127;BME280;13080;42.608;23.362;2023-05-03T05:19:46;153226.78;;;8.40;66.80
10127;BME280;13080;42.608;23.362;2023-05-03T05:22:15;153233.25;;;8.43;66.20
10127;BME280;13080;42.608;23.362;2023-05-03T05:24:43;153239.78;;;8.45;66.57
10127;BME280;13080;42.608;23.362;2023-05-03T05:27:10;153259.19;;;8.53;66.51
10127;BME280;13080;42.608;23.362;2023-05-03T05:29:37;153298.13;;;8.68;65.49
10127;BME280;13080;42.608;23.362;2023-05-03T05:32:04;153326.66;;;8.80;64.69
10127;BME280;13080;42.608;23.362;2023-05-03T05:34:31;153352.56;;;8.90;67.00
10127;BME280;13080;42.608;23.362;2023-05-03T05:36:57;153382.44;;;9.02;65.06
10127;BME280;13080;42.608;23.362;2023-05-03T05:39:45;153392.81;;;9.06;65.65
10127;BME280;13080;42.608;23.362;2023-05-03T05:42:11;153392.81;;;9.06;65.61
10127;BME280;13080;42.608;23.362;2023-05-03T05:44:38;153403.16;;;9.10;65.73
10127;BME280;13080;42.608;23.362;2023-05-03T05:47:05;153404.47;;;9.10;65.21
10127;BME280;13080;42.608;23.362;2023-05-03T05:49:32;153391.47;;;9.05;66.95
10127;BME280;13080;42.608;23.362;2023-05-03T05:51:58;153400.59;;;9.09;66.36
10127;BME280;13080;42.608;23.362;2023-05-03T05:54:25;153383.72;;;9.02;64.26
10127;BME280;13080;42.608;23.362;2023-05-03T05:56:53;153421.34;;;9.17;65.09
10127;BME280;13080;42.608;23.362;2023-05-03T05:59:21;153416.16;;;9.15;63.97
10127;BME280;13080;42.608;23.362;2023-05-03T06:01:47;153421.34;;;9.17;64.38
10127;BME280;13080;42.608;23.362;2023-05-03T06:04:14;153416.16;;;9.15;64.34
10127;BME280;13080;42.608;23.362;2023-05-03T06:06:41;153421.34;;;9.17;65.69
10127;BME280;13080;42.608;23.362;2023-05-03T06:09:08;153425.22;;;9.19;65.22
10127;BME280;13080;42.608;23.362;2023-05-03T06:11:35;153413.53;;;9.14;65.79
10127;BME280;13080;42.608;23.362;2023-05-03T06:14:04;153423.94;;;9.18;65.90
10127;BME280;13080;42.608;23.362;2023-05-03T06:16:34;153443.38;;;9.26;66.35
10127;BME280;13080;42.608;23.362;2023-05-03T06:19:01;153464.16;;;9.34;64.16
10127;BME280;13080;42.608;23.362;2023-05-03T06:21:27;153475.81;;;9.39;64.08
10127;BME280;13080;42.608;23.362;2023-05-03T06:23:55;153507.00;;;9.51;64.83
10127;BME280;13080;42.608;23.362;2023-05-03T06:26:22;153514.75;;;9.54;64.28
10127;BME280;13080;42.608;23.362;2023-05-03T06:28:51;153530.34;;;9.60;64.60
10127;BME280;13080;42.608;23.362;2023-05-03T06:31:19;153534.19;;;9.62;64.55
10127;BME280;13080;42.608;23.362;2023-05-03T06:33:46;153542.03;;;9.65;65.34
10127;BME280;13080;42.608;23.362;2023-05-03T06:36:13;153557.59;;;9.71;64.13
10127;BME280;13080;42.608;23.362;2023-05-03T06:38:39;153583.53;;;9.81;64.35
10127;BME280;13080;42.608;23.362;2023-05-03T06:41:06;153575.78;;;9.78;65.75
10127;BME280;13080;42.608;23.362;2023-05-03T06:43:33;153610.81;;;9.92;63.99
10127;BME280;13080;42.608;23.362;2023-05-03T06:45:59;153565.38;;;9.74;65.93
10127;BME280;13080;42.608;23.362;2023-05-03T06:48:27;153597.84;;;9.87;66.16
10127;BME280;13080;42.608;23.362;2023-05-03T06:50:55;153626.41;;;9.98;65.82
10127;BME280;13080;42.608;23.362;2023-05-03T06:53:22;153649.75;;;10.07;66.71
10127;BME280;13080;42.608;23.362;2023-05-03T06:55:48;153665.34;;;10.13;66.32
10127;BME280;13080;42.608;23.362;2023-05-03T06:58:15;153666.63;;;10.14;66.42
10127;BME280;13080;42.608;23.362;2023-05-03T07:00:42;153717.34;;;10.34;66.21
10127;BME280;13080;42.608;23.362;2023-05-03T07:03:09;153696.50;;;10.26;65.95
10127;BME280;13080;42.608;23.362;2023-05-03T07:05:37;153699.06;;;10.27;65.08
10127;BME280;13080;42.608;23.362;2023-05-03T07:08:03;153704.31;;;10.29;65.66
10127;BME280;13080;42.608;23.362;2023-05-03T07:10:30;153680.91;;;10.19;66.77
10127;BME280;13080;42.608;23.362;2023-05-03T07:12:57;153708.22;;;10.30;65.01
10127;BME280;13080;42.608;23.362;2023-05-03T07:15:24;153705.66;;;10.29;65.40
10127;BME280;13080;42.608;23.362;2023-05-03T07:17:50;153731.59;;;10.39;65.00
10127;BME280;13080;42.608;23.362;2023-05-03T07:20:17;153740.72;;;10.43;65.23
10127;BME280;13080;42.608;23.362;2023-05-03T07:22:45;153740.72;;;10.43;65.99
10127;BME280;13080;42.608;23.362;2023-05-03T07:25:14;153758.88;;;10.50;65.62
10127;BME280;13080;42.608;23.362;2023-05-03T07:27:42;153762.78;;;10.52;65.45
10127;BME280;13080;42.608;23.362;2023-05-03T07:30:09;153780.97;;;10.59;65.68
10127;BME280;13080;42.608;23.362;2023-05-03T07:32:36;153756.31;;;10.49;65.98
10127;BME280;13080;42.608;23.362;2023-05-03T07:35:03;153758.88;;;10.50;66.15
10127;BME280;13080;42.608;23.362;2023-05-03T07:37:31;153790.03;;;10.63;65.78
10127;BME280;13080;42.608;23.362;2023-05-03T07:39:59;153791.34;;;10.63;66.36
10127;BME280;13080;42.608;23.362;2023-05-03T07:42:26;153823.78;;;10.76;66.52
10127;BME280;13080;42.608;23.362;2023-05-03T07:44:53;153804.34;;;10.68;66.15
10127;BME280;13080;42.608;23.362;2023-05-03T07:47:20;153827.72;;;10.77;65.63
10127;BME280;13080;42.608;23.362;2023-05-03T07:49:47;153843.31;;;10.84;67.60
10127;BME280;13080;42.608;23.362;2023-05-03T07:52:15;153869.25;;;10.94;66.62
10127;BME280;13080;42.608;23.362;2023-05-03T07:54:42;153917.34;;;11.13;67.51
10127;BME280;13080;42.608;23.362;2023-05-03T07:57:12;153956.34;;;11.28;66.68
10127;BME280;13080;42.608;23.362;2023-05-03T07:59:39;154038.22;;;11.60;65.01
10127;BME280;13080;42.608;23.362;2023-05-03T08:02:07;154033.00;;;11.58;63.90
10127;BME280;13080;42.608;23.362;2023-05-03T08:04:33;154052.53;;;11.66;64.14
10127;BME280;13080;42.608;23.362;2023-05-03T08:07:00;154034.28;;;11.59;63.53
10127;BME280;13080;42.608;23.362;2023-05-03T08:09:28;154051.19;;;11.65;65.03
10127;BME280;13080;42.608;23.362;2023-05-03T08:11:55;154095.41;;;11.83;63.19
10127;BME280;13080;42.608;23.362;2023-05-03T08:14:23;154131.88;;;11.97;63.98
10127;BME280;13080;42.608;23.362;2023-05-03T08:16:50;154185.16;;;12.18;63.71
10127;BME280;13080;42.608;23.362;2023-05-03T08:19:17;154164.34;;;12.10;62.21
10127;BME280;13080;42.608;23.362;2023-05-03T08:21:43;154217.69;;;12.31;63.10
10127;BME280;13080;42.608;23.362;2023-05-03T08:24:11;154263.22;;;12.49;63.16
10127;BME280;13080;42.608;23.362;2023-05-03T08:26:38;154312.59;;;12.68;60.38
10127;BME280;13080;42.608;23.362;2023-05-03T08:29:05;154408.88;;;13.06;61.84
10127;BME280;13080;42.608;23.362;2023-05-03T08:31:33;154510.44;;;13.46;58.71
10127;BME280;13080;42.608;23.362;2023-05-03T08:34:00;154571.66;;;13.70;58.60
10127;BME280;13080;42.608;23.362;2023-05-03T08:36:28;154522.16;;;13.51;58.52
10127;BME280;13080;42.608;23.362;2023-05-03T08:38:55;154539.09;;;13.58;59.59
10127;BME280;13080;42.608;23.362;2023-05-03T08:41:28;154501.31;;;13.43;60.40
10127;BME280;13080;42.608;23.362;2023-05-03T08:43:57;154447.94;;;13.22;60.46
10127;BME280;13080;42.608;23.362;2023-05-03T08:46:24;154451.84;;;13.23;61.18
10127;BME280;13080;42.608;23.362;2023-05-03T08:48:53;154442.72;;;13.20;60.52
10127;BME280;13080;42.608;23.362;2023-05-03T08:51:20;154419.31;;;13.10;61.52
10127;BME280;13080;42.608;23.362;2023-05-03T08:53:48;154391.97;;;13.00;60.79
10127;BME280;13080;42.608;23.362;2023-05-03T08:56:23;154414.09;;;13.08;60.96
10127;BME280;13080;42.608;23.362;2023-05-03T08:58:51;154393.25;;;13.00;62.56
10127;BME280;13080;42.608;23.362;2023-05-03T09:01:18;154434.94;;;13.17;61.88
10127;BME280;13080;42.608;23.362;2023-05-03T09:03:48;154492.25;;;13.39;61.98
10127;BME280;13080;42.608;23.362;2023-05-03T09:06:20;154519.59;;;13.50;59.29
10127;BME280;13080;42.608;23.362;2023-05-03T09:08:50;154523.44;;;13.51;59.22
10127;BME280;13080;42.608;23.362;2023-05-03T09:11:21;154539.09;;;13.58;58.83
10127;BME280;13080;42.608;23.362;2023-05-03T09:13:49;154518.25;;;13.49;60.21
10127;BME280;13080;42.608;23.362;2023-05-03T09:16:22;154569.00;;;13.69;58.97
10127;BME280;13080;42.608;23.362;2023-05-03T09:18:56;154625.00;;;13.91;58.70
10127;BME280;13080;42.608;23.362;2023-05-03T09:21:24;154634.13;;;13.95;57.58
10127;BME280;13080;42.608;23.362;2023-05-03T09:23:51;154701.84;;;14.22;57.87
10127;BME280;13080;42.608;23.362;2023-05-03T09:26:28;154757.81;;;14.44;57.71
10127;BME280;13080;42.608;23.362;2023-05-03T09:28:56;154799.56;;;14.60;57.83
10127;BME280;13080;42.608;23.362;2023-05-03T09:31:23;154798.28;;;14.60;57.02
10127;BME280;13080;42.608;23.362;2023-05-03T09:33:50;154803.44;;;14.62;58.33
10127;BME280;13080;42.608;23.362;2023-05-03T09:36:18;154783.88;;;14.54;57.50
10127;BME280;13080;42.608;23.362;2023-05-03T09:38:46;154808.66;;;14.64;57.75
10127;BME280;13080;42.608;23.362;2023-05-03T09:41:13;154849.03;;;14.80;56.70
10127;BME280;13080;42.608;23.362;2023-05-03T09:43:47;154944.19;;;15.17;56.00
10127;BME280;13080;42.608;23.362;2023-05-03T09:46:14;154988.50;;;15.34;55.73
10127;BME280;13080;42.608;23.362;2023-05-03T09:48:41;155005.44;;;15.41;54.62
10127;BME280;13080;42.608;23.362;2023-05-03T09:51:10;154958.53;;;15.23;57.05
10127;BME280;13080;42.608;23.362;2023-05-03T09:53:38;154932.47;;;15.12;55.01
10127;BME280;13080;42.608;23.362;2023-05-03T09:56:08;154953.31;;;15.21;58.07
10127;BME280;13080;42.608;23.362;2023-05-03T09:58:37;154929.88;;;15.11;55.94
10127;BME280;13080;42.608;23.362;2023-05-03T10:01:04;154915.50;;;15.06;55.62
10127;BME280;13080;42.608;23.362;2023-05-03T10:03:38;154899.88;;;15.00;56.54
10127;BME280;13080;42.608;23.362;2023-05-03T10:06:13;154898.56;;;14.99;56.01
10127;BME280;13080;42.608;23.362;2023-05-03T10:08:48;154922.03;;;15.08;56.69
10127;BME280;13080;42.608;23.362;2023-05-03T10:11:18;154989.78;;;15.35;59.56
10127;BME280;13080;42.608;23.362;2023-05-03T10:13:46;155047.13;;;15.57;56.20
10127;BME280;13080;42.608;23.362;2023-05-03T10:16:16;155098.03;;;15.77;55.53
10127;BME280;13080;42.608;23.362;2023-05-03T10:18:50;155087.59;;;15.73;55.22
10127;BME280;13080;42.608;23.362;2023-05-03T10:21:24;155032.81;;;15.52;54.57
10127;BME280;13080;42.608;23.362;2023-05-03T10:24:08;154993.72;;;15.36;57.74
10127;BME280;13080;42.608;23.362;2023-05-03T10:26:36;155013.25;;;15.44;57.10
10127;BME280;13080;42.608;23.362;2023-05-03T10:29:05;155015.88;;;15.45;55.90
10127;BME280;13080;42.608;23.362;2023-05-03T10:31:47;155031.47;;;15.51;54.84
10127;BME280;13080;42.608;23.362;2023-05-03T10:34:22;155092.81;;;15.75;55.99
10127;BME280;13080;42.608;23.362;2023-05-03T10:36:49;155173.66;;;16.07;54.23
10127;BME280;13080;42.608;23.362;2023-05-03T10:39:17;155208.91;;;16.21;55.08
10127;BME280;13080;42.608;23.362;2023-05-03T10:41:55;155274.09;;;16.47;53.29
10127;BME280;13080;42.608;23.362;2023-05-03T10:44:26;155275.38;;;16.47;52.47
10127;BME280;13080;42.608;23.362;2023-05-03T10:46:53;155234.94;;;16.31;53.35
10127;BME280;13080;42.608;23.362;2023-05-03T10:49:21;155259.72;;;16.41;53.37
10127;BME280;13080;42.608;23.362;2023-05-03T10:51:50;155206.25;;;16.20;53.57
10127;BME280;13080;42.608;23.362;2023-05-03T10:54:17;155229.72;;;16.29;53.11
10127;BME280;13080;42.608;23.362;2023-05-03T10:56:50;155189.31;;;16.13;54.24
10127;BME280;13080;42.608;23.362;2023-05-03T10:59:17;155297.56;;;16.56;54.35
10127;BME280;13080;42.608;23.362;2023-05-03T11:01:44;155326.25;;;16.67;52.32
10127;BME280;13080;42.608;23.362;2023-05-03T11:04:15;155349.72;;;16.76;53.64
10127;BME280;13080;42.608;23.362;2023-05-03T11:06:46;155400.66;;;16.96;53.29
10127;BME280;13080;42.608;23.362;2023-05-03T11:09:16;155338.00;;;16.72;53.58
10127;BME280;13080;42.608;23.362;2023-05-03T11:11:43;155403.31;;;16.97;51.96
10127;BME280;13080;42.608;23.362;2023-05-03T11:14:11;155323.66;;;16.66;53.58
10127;BME280;13080;42.608;23.362;2023-05-03T11:16:39;155331.47;;;16.69;54.30
10127;BME280;13080;42.608;23.362;2023-05-03T11:19:12;155319.75;;;16.65;54.26
10127;BME280;13080;42.608;23.362;2023-05-03T11:21:41;155306.72;;;16.59;53.66
10127;BME280;13080;42.608;23.362;2023-05-03T11:24:08;155306.72;;;16.59;54.53
10127;BME280;13080;42.608;23.362;2023-05-03T11:26:35;155348.44;;;16.76;55.71
10127;BME280;13080;42.608;23.362;2023-05-03T11:29:03;155443.75;;;17.13;54.13
10127;BME280;13080;42.608;23.362;2023-05-03T11:31:31;155506.38;;;17.38;53.17
10127;BME280;13080;42.608;23.362;2023-05-03T11:33:59;155476.34;;;17.26;52.19
10127;BME280;13080;42.608;23.362;2023-05-03T11:36:26;155555.97;;;17.57;53.10
10127;BME280;13080;42.608;23.362;2023-05-03T11:38:54;155633.06;;;17.88;53.23
10127;BME280;13080;42.608;23.362;2023-05-03T11:41:21;155587.31;;;17.70;51.76
10127;BME280;13080;42.608;23.362;2023-05-03T11:43:48;155529.88;;;17.47;52.42
10127;BME280;13080;42.608;23.362;2023-05-03T11:46:18;155570.34;;;17.63;54.33
10127;BME280;13080;42.608;23.362;2023-05-03T11:48:47;155535.09;;;17.49;52.62
10127;BME280;13080;42.608;23.362;2023-05-03T11:51:16;155599.06;;;17.74;52.16
10127;BME280;13080;42.608;23.362;2023-05-03T11:53:46;155642.16;;;17.91;50.40
10127;BME280;13080;42.608;23.362;2023-05-03T11:56:14;155660.47;;;17.98;51.88
10127;BME280;13080;42.608;23.362;2023-05-03T11:58:52;155704.84;;;18.16;52.67
10127;BME280;13080;42.608;23.362;2023-05-03T12:01:22;155686.56;;;18.08;50.26
10127;BME280;13080;42.608;23.362;2023-05-03T12:03:53;155566.41;;;17.61;52.47
10127;BME280;13080;42.608;23.362;2023-05-03T12:06:21;155490.72;;;17.32;52.88
10127;BME280;13080;42.608;23.362;2023-05-03T12:08:48;155458.06;;;17.19;53.00
10127;BME280;13080;42.608;23.362;2023-05-03T12:11:15;155420.25;;;17.04;52.51
10127;BME280;13080;42.608;23.362;2023-05-03T12:13:42;155358.94;;;16.80;53.70
10127;BME280;13080;42.608;23.362;2023-05-03T12:16:09;155317.09;;;16.63;54.91
10127;BME280;13080;42.608;23.362;2023-05-03T12:18:49;155362.81;;;16.81;54.30
10127;BME280;13080;42.608;23.362;2023-05-03T12:21:18;155315.81;;;16.63;54.54
10127;BME280;13080;42.608;23.362;2023-05-03T12:23:45;155285.81;;;16.51;54.14
10127;BME280;13080;42.608;23.362;2023-05-03T12:26:14;155220.63;;;16.26;55.57
10127;BME280;13080;42.608;23.362;2023-05-03T12:28:41;155158.03;;;16.01;56.63
10127;BME280;13080;42.608;23.362;2023-05-03T12:31:08;155131.94;;;15.91;56.69
10127;BME280;13080;42.608;23.362;2023-05-03T12:33:35;155057.56;;;15.62;57.22
10127;BME280;13080;42.608;23.362;2023-05-03T12:36:01;155001.53;;;15.39;58.31
10127;BME280;13080;42.608;23.362;2023-05-03T12:38:30;154945.47;;;15.17;58.69
10127;BME280;13080;42.608;23.362;2023-05-03T12:40:56;154945.47;;;15.17;60.04
10127;BME280;13080;42.608;23.362;2023-05-03T12:43:24;154903.78;;;15.01;59.80
10127;BME280;13080;42.608;23.362;2023-05-03T12:45:50;154855.59;;;14.82;60.62
10127;BME280;13080;42.608;23.362;2023-05-03T12:48:17;154790.44;;;14.57;61.82
10127;BME280;13080;42.608;23.362;2023-05-03T12:50:44;154708.34;;;14.24;62.83